createdAt,value
2022-09-02T00:01:59.642Z,1.05
2022-09-02T00:04:26.829Z,1.52
2022-09-02T00:06:54.714Z,0.90
2022-09-02T00:09:23.165Z,0.45
2022-09-02T00:11:50.866Z,0.52
2022-09-02T00:14:21.837Z,1.55
2022-09-02T00:16:51.827Z,1.08
2022-09-02T00:19:24.505Z,0.63
2022-09-02T00:21:52.488Z,2.00
2022-09-02T00:24:19.547Z,1.17
2022-09-02T00:26:46.733Z,1.33
2022-09-02T00:29:15.403Z,0.40
2022-09-02T00:31:43.184Z,1.52
2022-09-02T00:34:10.348Z,0.40
2022-09-02T00:36:37.076Z,1.23
2022-09-02T00:39:05.607Z,0.68
2022-09-02T00:41:32.543Z,1.00
2022-09-02T00:44:03.512Z,1.02
2022-09-02T00:46:31.435Z,0.50
2022-09-02T00:49:27.306Z,1.92
2022-09-02T00:52:11.868Z,1.30
2022-09-02T00:54:44.557Z,0.70
2022-09-02T00:57:13.623Z,0.73
2022-09-02T01:00:01.527Z,0.50
2022-09-02T01:02:28.987Z,0.50
2022-09-02T01:04:56.889Z,0.40
2022-09-02T01:07:26.130Z,2.47
2022-09-02T01:09:55.535Z,0.40
2022-09-02T01:12:23.172Z,0.68
2022-09-02T01:14:50.925Z,2.05
2022-09-02T01:17:19.423Z,0.77
2022-09-02T01:19:49.763Z,0.82
2022-09-02T01:22:27.835Z,0.70
2022-09-02T01:24:57.179Z,0.60
2022-09-02T01:27:24.104Z,0.93
2022-09-02T01:29:53.213Z,1.25
2022-09-02T01:32:19.788Z,0.43
2022-09-02T01:34:46.529Z,0.57
2022-09-02T01:37:13.207Z,0.60
2022-09-02T01:39:40.215Z,0.98
2022-09-02T01:42:06.837Z,0.52
2022-09-02T01:44:35.256Z,0.85
2022-09-02T01:47:01.969Z,1.38
2022-09-02T01:49:28.649Z,0.75
2022-09-02T01:51:59.127Z,0.68
2022-09-02T01:54:25.688Z,0.65
2022-09-02T01:56:52.341Z,1.17
2022-09-02T01:59:20.860Z,1.50
2022-09-02T02:01:47.751Z,1.48
2022-09-02T02:04:16.073Z,1.13
2022-09-02T02:06:48.272Z,0.82
2022-09-02T02:09:19.496Z,1.15
2022-09-02T02:11:46.749Z,0.60
2022-09-02T02:14:13.521Z,0.75
2022-09-02T02:16:40.178Z,0.40
2022-09-02T02:19:06.770Z,1.15
2022-09-02T02:21:33.351Z,1.00
2022-09-02T02:24:02.943Z,0.47
2022-09-02T02:26:30.380Z,0.73
2022-09-02T02:28:57.035Z,0.50
2022-09-02T02:31:25.109Z,0.77
2022-09-02T02:33:51.739Z,0.98
2022-09-02T02:36:19.077Z,0.50
2022-09-02T02:38:46.758Z,2.70
2022-09-02T02:41:14.439Z,1.25
2022-09-02T02:43:41.168Z,0.70
2022-09-02T02:46:08.847Z,0.52
2022-09-02T02:48:36.529Z,0.90
2022-09-02T02:51:04.174Z,0.65
2022-09-02T02:53:31.340Z,0.68
2022-09-02T02:55:59.539Z,0.95
2022-09-02T02:58:26.620Z,1.00
2022-09-02T03:00:53.191Z,0.98
2022-09-02T03:03:19.976Z,0.50
2022-09-02T03:05:47.525Z,0.50
2022-09-02T03:08:14.140Z,1.65
2022-09-02T03:10:42.053Z,0.50
2022-09-02T03:13:12.827Z,0.85
2022-09-02T03:15:42.700Z,0.80
2022-09-02T03:18:09.590Z,0.98
2022-09-02T03:20:36.154Z,1.17
2022-09-02T03:23:04.672Z,1.00
2022-09-02T03:25:35.807Z,1.40
2022-09-02T03:28:03.746Z,2.80
2022-09-02T03:30:31.512Z,0.40
2022-09-02T03:33:03.766Z,0.70
2022-09-02T03:35:32.637Z,0.45
2022-09-02T03:37:59.845Z,0.77
2022-09-02T03:40:27.847Z,1.15
2022-09-02T03:42:59.724Z,0.50
2022-09-02T03:45:27.153Z,0.63
2022-09-02T03:47:56.859Z,1.23
2022-09-02T03:50:25.741Z,0.73
2022-09-02T03:52:52.676Z,0.65
2022-09-02T03:55:19.479Z,0.30
2022-09-02T03:57:46.496Z,0.47
2022-09-02T04:00:15.375Z,0.77
2022-09-02T04:02:43.102Z,0.82
2022-09-02T04:05:15.858Z,0.98
2022-09-02T04:07:42.857Z,0.32
2022-09-02T04:10:14.067Z,0.93
2022-09-02T04:12:41.038Z,0.65
2022-09-02T04:15:09.294Z,0.93
2022-09-02T04:17:37.175Z,1.00
2022-09-02T04:20:08.831Z,1.45
2022-09-02T04:22:35.808Z,0.50
2022-09-02T04:25:03.441Z,0.63
2022-09-02T04:27:30.772Z,1.38
2022-09-02T04:29:57.447Z,1.70
2022-09-02T04:32:25.712Z,0.95
2022-09-02T04:34:52.492Z,2.20
2022-09-02T04:37:19.057Z,0.88
2022-09-02T04:39:45.628Z,0.75
2022-09-02T04:42:12.885Z,2.85
2022-09-02T04:44:39.454Z,0.77
2022-09-02T04:47:06.159Z,1.02
2022-09-02T04:49:33.321Z,1.17
2022-09-02T04:52:00.716Z,0.70
2022-09-02T04:54:27.326Z,0.75
2022-09-02T04:56:54.020Z,0.98
2022-09-02T04:59:21.345Z,0.85
2022-09-02T05:01:48.190Z,0.55
2022-09-02T05:04:14.820Z,1.77
2022-09-02T05:06:44.404Z,1.90
2022-09-02T05:09:11.389Z,0.95
2022-09-02T05:11:38.793Z,1.85
2022-09-02T05:14:06.770Z,0.73
2022-09-02T05:16:36.811Z,1.35
2022-09-02T05:19:05.205Z,0.98
2022-09-02T05:21:32.126Z,0.82
2022-09-02T05:24:01.056Z,0.88
2022-09-02T05:26:27.937Z,3.55
2022-09-02T05:28:54.510Z,1.48
2022-09-02T05:31:21.925Z,1.02
2022-09-02T05:33:48.792Z,0.70
2022-09-02T05:36:18.216Z,1.50
2022-09-02T05:38:45.187Z,1.20
2022-09-02T05:41:18.259Z,1.25
2022-09-02T05:43:45.803Z,1.48
2022-09-02T05:46:17.655Z,1.10
2022-09-02T05:49:04.814Z,1.80
2022-09-02T05:51:33.307Z,2.20
2022-09-02T05:54:01.100Z,2.35
2022-09-02T05:56:27.794Z,1.23
2022-09-02T05:58:58.803Z,2.88
2022-09-02T06:01:28.485Z,2.42
2022-09-02T06:03:56.110Z,1.90
2022-09-02T06:06:23.856Z,1.02
2022-09-02T06:08:51.248Z,2.45
2022-09-02T06:11:18.377Z,0.88
2022-09-02T06:13:45.494Z,1.67
2022-09-02T06:16:19.084Z,1.42
2022-09-02T06:18:47.145Z,1.67
2022-09-02T06:21:15.238Z,2.05
2022-09-02T06:23:42.043Z,1.45
2022-09-02T06:26:09.997Z,1.83
2022-09-02T06:28:36.846Z,1.40
2022-09-02T06:31:13.234Z,1.35
2022-09-02T06:33:39.902Z,1.17
2022-09-02T06:36:12.089Z,1.25
2022-09-02T06:38:43.879Z,1.27
2022-09-02T06:41:14.780Z,1.92
2022-09-02T06:43:42.632Z,2.50
2022-09-02T06:46:15.629Z,0.98
2022-09-02T06:48:42.272Z,1.48
2022-09-02T06:51:08.977Z,1.48
2022-09-02T06:53:35.579Z,1.48
2022-09-02T06:56:02.196Z,1.77
2022-09-02T06:58:28.780Z,0.90
2022-09-02T07:00:55.494Z,1.10
2022-09-02T07:03:40.596Z,1.75
2022-09-02T07:06:09.526Z,2.22
2022-09-02T07:08:38.089Z,1.48
2022-09-02T07:11:06.160Z,5.55
2022-09-02T07:13:33.940Z,2.38
2022-09-02T07:16:01.193Z,3.15
2022-09-02T07:18:28.084Z,2.42
2022-09-02T07:20:55.286Z,2.28
2022-09-02T07:23:21.965Z,4.22
2022-09-02T07:25:48.583Z,3.17
2022-09-02T07:28:15.163Z,2.47
2022-09-02T07:30:43.154Z,2.35
2022-09-02T07:33:14.409Z,2.97
2022-09-02T07:35:45.743Z,2.55
2022-09-02T07:38:12.543Z,1.58
2022-09-02T07:40:41.024Z,3.58
2022-09-02T07:43:09.607Z,2.88
2022-09-02T07:45:38.209Z,6.43
2022-09-02T07:48:09.204Z,2.50
2022-09-02T07:50:37.173Z,4.47
2022-09-02T07:53:06.393Z,3.33
2022-09-02T07:55:35.224Z,2.83
2022-09-02T07:58:02.710Z,7.60
2022-09-02T08:00:29.618Z,3.67
2022-09-02T08:02:56.489Z,4.57
2022-09-02T08:05:23.615Z,3.22
2022-09-02T08:07:50.263Z,3.08
2022-09-02T08:10:17.235Z,2.70
2022-09-02T08:12:44.592Z,2.17
2022-09-02T08:15:12.194Z,2.33
2022-09-02T08:17:41.125Z,1.50
2022-09-02T08:20:12.858Z,2.38
2022-09-02T08:22:40.520Z,3.67
2022-09-02T08:25:08.231Z,2.47
2022-09-02T08:27:35.660Z,3.08
2022-09-02T08:30:02.339Z,3.08
2022-09-02T08:32:29.490Z,2.10
2022-09-02T08:34:56.061Z,3.15
2022-09-02T08:37:22.798Z,2.10
2022-09-02T08:39:49.537Z,4.22
2022-09-02T08:42:24.071Z,2.03
2022-09-02T08:44:57.428Z,4.10
2022-09-02T08:47:29.768Z,4.68
2022-09-02T08:50:00.101Z,4.20
2022-09-02T08:52:32.445Z,3.70
2022-09-02T08:54:59.147Z,2.88
2022-09-02T08:57:27.138Z,2.35
2022-09-02T08:59:56.841Z,3.28
2022-09-02T09:02:58.186Z,3.03
2022-09-02T09:06:08.027Z,2.00
2022-09-02T09:08:37.450Z,2.15
2022-09-02T09:11:15.936Z,2.97
2022-09-02T09:14:00.599Z,2.85
2022-09-02T09:16:42.348Z,3.00
2022-09-02T09:19:15.206Z,2.00
2022-09-02T09:21:43.195Z,1.33
2022-09-02T09:24:23.088Z,1.10
2022-09-02T09:26:49.668Z,1.85
2022-09-02T09:29:16.276Z,1.77
2022-09-02T09:31:44.402Z,1.70
2022-09-02T09:34:16.836Z,1.73
2022-09-02T09:36:44.447Z,2.77
2022-09-02T09:39:29.685Z,1.52
2022-09-02T09:41:58.654Z,1.60
2022-09-02T09:44:46.096Z,1.60
2022-09-02T09:47:22.788Z,1.40
2022-09-02T09:49:51.506Z,1.65
2022-09-02T09:52:30.723Z,1.20
2022-09-02T09:55:19.211Z,3.60
2022-09-02T09:57:53.398Z,2.28
2022-09-02T10:00:26.142Z,2.05
2022-09-02T10:02:55.162Z,2.25
2022-09-02T10:05:24.398Z,2.38
2022-09-02T10:07:59.302Z,1.35
2022-09-02T10:10:28.226Z,2.63
2022-09-02T10:12:59.287Z,1.63
2022-09-02T10:15:45.369Z,2.90
2022-09-02T10:18:49.314Z,1.17
2022-09-02T10:24:04.942Z,1.33
2022-09-02T10:26:38.261Z,0.88
2022-09-02T10:32:11.164Z,1.10
2022-09-02T10:34:49.621Z,1.27
2022-09-02T10:37:19.474Z,0.98
2022-09-02T10:40:25.377Z,3.30
2022-09-02T10:43:07.273Z,3.40
2022-09-02T10:45:51.043Z,1.15
2022-09-02T10:49:14.009Z,1.85
2022-09-02T10:51:53.932Z,2.40
2022-09-02T10:54:37.836Z,1.33
2022-09-02T10:57:20.076Z,1.38
2022-09-02T11:00:13.624Z,1.60
2022-09-02T11:02:48.573Z,1.63
2022-09-02T11:05:18.808Z,1.15
2022-09-02T11:07:54.325Z,1.63
2022-09-02T11:10:27.934Z,2.08
2022-09-02T11:13:04.884Z,2.95
2022-09-02T11:15:53.195Z,2.92
2022-09-02T11:18:33.237Z,2.20
2022-09-02T11:21:25.425Z,1.95
2022-09-02T11:24:10.317Z,2.45
2022-09-02T11:26:48.956Z,3.35
2022-09-02T11:29:31.533Z,1.38
2022-09-02T11:32:15.943Z,2.28
2022-09-02T11:34:51.420Z,2.85
2022-09-02T11:37:30.815Z,2.58
2022-09-02T11:40:33.302Z,2.13
2022-09-02T11:43:25.291Z,4.32
2022-09-02T11:45:54.117Z,2.28
2022-09-02T11:48:36.143Z,3.17
2022-09-02T11:51:30.448Z,2.35
2022-09-02T11:53:57.769Z,4.63
2022-09-02T11:56:30.504Z,2.42
2022-09-02T11:58:57.216Z,2.83
2022-09-02T12:01:43.738Z,3.38
2022-09-02T12:07:08.647Z,4.72
2022-09-02T12:09:49.745Z,3.28
2022-09-02T12:12:41.520Z,1.70
2022-09-02T12:15:18.100Z,3.00
2022-09-02T12:17:49.865Z,2.03
2022-09-02T12:20:43.749Z,1.85
2022-09-02T12:23:50.304Z,1.30
2022-09-02T12:26:18.110Z,2.85
2022-09-02T12:28:48.152Z,1.58
2022-09-02T12:31:34.429Z,3.28
2022-09-02T12:34:02.784Z,3.13
2022-09-02T12:36:59.220Z,2.30
2022-09-02T12:39:30.649Z,2.28
2022-09-02T12:42:10.262Z,2.75
2022-09-02T12:45:07.537Z,4.22
2022-09-02T12:48:17.431Z,3.65
2022-09-02T12:50:43.929Z,3.47
2022-09-02T12:53:47.234Z,2.08
2022-09-02T12:56:13.736Z,2.20
2022-09-02T12:58:45.722Z,1.85
2022-09-02T13:01:21.715Z,3.00
2022-09-02T13:04:29.156Z,4.88
2022-09-02T13:07:23.342Z,3.15
2022-09-02T13:10:11.132Z,2.30
2022-09-02T13:13:05.253Z,2.13
2022-09-02T13:15:46.801Z,1.92
2022-09-02T13:18:43.432Z,2.30
2022-09-02T13:21:14.211Z,2.25
2022-09-02T13:24:15.088Z,3.05
2022-09-02T13:26:51.857Z,2.38
2022-09-02T13:29:46.366Z,2.72
2022-09-02T13:32:23.506Z,1.95
2022-09-02T13:34:52.425Z,2.95
2022-09-02T13:37:39.156Z,2.38
2022-09-02T13:40:34.763Z,3.35
2022-09-02T13:43:03.508Z,4.18
2022-09-02T13:45:33.777Z,4.00
2022-09-02T13:48:03.570Z,4.13
2022-09-02T13:50:31.173Z,2.58
2022-09-02T13:53:45.484Z,2.45
2022-09-02T13:55:54.169Z,2.92
2022-09-02T13:58:49.904Z,3.38
2022-09-02T14:01:31.388Z,4.97
2022-09-02T14:04:00.018Z,2.25
2022-09-02T14:06:33.432Z,4.05
2022-09-02T14:09:01.682Z,2.50
2022-09-02T14:11:28.929Z,2.80
2022-09-02T14:13:56.306Z,3.22
2022-09-02T14:16:36.307Z,3.05
2022-09-02T14:19:04.792Z,2.15
2022-09-02T14:21:32.010Z,3.38
2022-09-02T14:23:58.721Z,3.60
2022-09-02T14:26:28.139Z,4.10
2022-09-02T14:28:54.784Z,3.40
2022-09-02T14:31:29.130Z,3.05
2022-09-02T14:33:55.764Z,4.03
2022-09-02T14:36:25.202Z,3.72
2022-09-02T14:38:57.440Z,2.13
2022-09-02T14:41:36.041Z,2.45
2022-09-02T14:44:18.516Z,2.20
2022-09-02T14:46:46.923Z,2.50
2022-09-02T14:49:33.775Z,4.00
2022-09-02T14:52:03.722Z,3.17
2022-09-02T14:54:36.024Z,2.55
2022-09-02T14:57:03.612Z,3.87
2022-09-02T14:59:30.444Z,3.15
2022-09-02T15:01:58.470Z,3.63
2022-09-02T15:04:25.335Z,1.95
2022-09-02T15:06:52.085Z,3.50
2022-09-02T15:09:18.692Z,1.55
2022-09-02T15:11:49.523Z,1.75
2022-09-02T15:14:16.301Z,2.67
2022-09-02T15:16:42.912Z,1.98
2022-09-02T15:19:09.522Z,2.35
2022-09-02T15:21:36.130Z,1.88
2022-09-02T15:24:02.916Z,3.03
2022-09-02T15:26:29.511Z,3.42
2022-09-02T15:28:56.151Z,2.65
2022-09-02T15:31:22.858Z,1.77
2022-09-02T15:33:51.659Z,2.90
2022-09-02T15:36:19.196Z,3.53
2022-09-02T15:38:45.755Z,1.80
2022-09-02T15:41:15.416Z,2.58
2022-09-02T15:43:42.701Z,2.75
2022-09-02T15:46:34.749Z,2.50
2022-09-02T15:49:04.149Z,2.60
2022-09-02T15:51:31.216Z,3.25
2022-09-02T15:54:02.707Z,3.28
2022-09-02T15:56:31.666Z,1.42
2022-09-02T15:59:02.467Z,2.78
2022-09-02T16:01:34.028Z,1.63
2022-09-02T16:04:04.606Z,1.42
2022-09-02T16:06:33.135Z,2.17
2022-09-02T16:08:59.757Z,1.23
2022-09-02T16:11:26.369Z,2.63
2022-09-02T16:13:53.612Z,1.17
2022-09-02T16:16:20.681Z,3.55
2022-09-02T16:18:52.330Z,2.22
2022-09-02T16:21:20.025Z,1.42
2022-09-02T16:23:48.088Z,2.33
2022-09-02T16:26:34.602Z,2.50
2022-09-02T16:29:04.048Z,2.85
2022-09-02T16:31:32.688Z,2.20
2022-09-02T16:34:13.507Z,2.85
2022-09-02T16:36:45.364Z,4.57
2022-09-02T16:39:13.420Z,2.65
2022-09-02T16:41:43.917Z,2.42
2022-09-02T16:44:18.886Z,2.05
2022-09-02T16:46:46.922Z,2.65
2022-09-02T16:49:18.502Z,2.40
2022-09-02T16:51:49.917Z,2.33
2022-09-02T16:54:21.312Z,3.80
2022-09-02T16:56:58.661Z,1.83
2022-09-02T16:59:25.440Z,1.75
2022-09-02T17:01:52.064Z,5.60
2022-09-02T17:04:18.659Z,2.47
2022-09-02T17:06:45.262Z,2.55
2022-09-02T17:09:11.852Z,2.58
2022-09-02T17:11:39.910Z,5.18
2022-09-02T17:14:10.351Z,3.03
2022-09-02T17:16:42.614Z,2.15
2022-09-02T17:19:10.428Z,1.53
2022-09-02T17:21:47.025Z,3.88
2022-09-02T17:24:14.638Z,3.30
2022-09-02T17:26:43.077Z,2.65
2022-09-02T17:29:17.339Z,4.40
2022-09-02T17:31:57.058Z,3.95
2022-09-02T17:34:23.630Z,2.05
2022-09-02T17:36:50.191Z,2.15
2022-09-02T17:39:18.516Z,3.78
2022-09-02T17:41:54.391Z,2.25
2022-09-02T17:44:35.758Z,2.28
2022-09-02T17:47:10.899Z,3.08
2022-09-02T17:49:38.504Z,2.08
2022-09-02T17:52:07.574Z,2.13
2022-09-02T17:54:38.621Z,2.35
2022-09-02T17:57:08.605Z,3.60
2022-09-02T17:59:38.076Z,2.25
2022-09-02T18:02:25.737Z,2.88
2022-09-02T18:05:06.635Z,2.30
2022-09-02T18:08:14.670Z,3.65
2022-09-02T18:11:05.736Z,3.58
2022-09-02T18:13:41.443Z,3.60
2022-09-02T18:16:23.858Z,4.15
2022-09-02T18:19:25.841Z,5.10
2022-09-02T18:21:58.623Z,4.97
2022-09-02T18:24:55.378Z,3.90
2022-09-02T18:27:42.006Z,3.75
2022-09-02T18:30:22.333Z,5.88
2022-09-02T18:33:07.649Z,5.28
2022-09-02T18:35:40.284Z,5.07
2022-09-02T18:38:07.706Z,3.50
2022-09-02T18:40:45.997Z,5.22
2022-09-02T18:43:26.038Z,3.38
2022-09-02T18:45:54.724Z,3.15
2022-09-02T18:48:25.550Z,4.45
2022-09-02T18:51:24.330Z,3.17
2022-09-02T18:54:04.290Z,4.35
2022-09-02T18:56:33.669Z,3.30
2022-09-02T18:59:10.866Z,3.30
2022-09-02T19:01:41.411Z,2.65
2022-09-02T19:04:08.053Z,4.50
2022-09-02T19:06:36.207Z,2.65
2022-09-02T19:09:08.207Z,3.45
2022-09-02T19:11:37.471Z,2.88
2022-09-02T19:14:26.484Z,3.92
2022-09-02T19:16:54.039Z,3.58
2022-09-02T19:19:20.908Z,3.72
2022-09-02T19:21:53.733Z,2.05
2022-09-02T19:24:44.545Z,2.50
2022-09-02T19:27:20.903Z,2.42
2022-09-02T19:29:51.356Z,3.90
2022-09-02T19:32:27.351Z,3.42
2022-09-02T19:34:54.043Z,2.45
2022-09-02T19:37:20.684Z,5.03
2022-09-02T19:39:52.239Z,4.18
2022-09-02T19:42:20.622Z,3.75
2022-09-02T19:44:50.790Z,5.05
2022-09-02T19:50:06.043Z,4.00
2022-09-02T19:52:42.154Z,3.70
2022-09-02T19:55:09.696Z,2.83
2022-09-02T19:57:37.186Z,6.78
2022-09-02T20:00:04.480Z,3.35
2022-09-02T20:02:31.094Z,4.90
2022-09-02T20:04:57.673Z,3.28
2022-09-02T20:07:25.685Z,5.90
2022-09-02T20:09:53.177Z,5.22
2022-09-02T20:12:19.819Z,3.72
2022-09-02T20:14:46.389Z,6.88
2022-09-02T20:17:15.175Z,5.95
2022-09-02T20:19:43.578Z,4.65
2022-09-02T20:22:13.403Z,4.85
2022-09-02T20:24:40.892Z,3.95
2022-09-02T20:27:12.467Z,6.88
2022-09-02T20:29:43.238Z,4.15
2022-09-02T20:32:21.420Z,4.32
2022-09-02T20:34:51.759Z,4.05
2022-09-02T20:38:05.577Z,3.78
2022-09-02T20:40:50.141Z,4.03
2022-09-02T20:44:07.188Z,3.38
2022-09-02T20:46:57.309Z,3.45
2022-09-02T20:49:48.266Z,2.55
2022-09-02T20:52:25.071Z,5.10
2022-09-02T20:55:25.883Z,3.58
2022-09-02T20:58:16.318Z,3.10
2022-09-02T21:01:06.724Z,2.60
2022-09-02T21:04:06.578Z,2.35
2022-09-02T21:06:40.759Z,3.05
2022-09-02T21:09:14.102Z,2.38
2022-09-02T21:11:53.336Z,3.00
2022-09-02T21:14:26.250Z,2.45
2022-09-02T21:17:02.344Z,3.15
2022-09-02T21:19:33.638Z,3.78
2022-09-02T21:22:10.023Z,3.63
2022-09-02T21:24:51.394Z,3.72
2022-09-02T21:27:25.840Z,2.60
2022-09-02T21:30:02.931Z,2.72
2022-09-02T21:33:02.038Z,3.53
2022-09-02T21:35:41.333Z,2.03
2022-09-02T21:38:18.191Z,4.45
2022-09-02T21:41:13.473Z,2.53
2022-09-02T21:43:45.858Z,2.03
2022-09-02T21:46:29.974Z,2.00
2022-09-02T21:49:07.472Z,2.70
2022-09-02T21:51:37.246Z,1.80
2022-09-02T21:54:16.008Z,2.85
2022-09-02T21:57:06.029Z,3.15
2022-09-02T21:59:50.688Z,1.80
2022-09-02T22:02:25.821Z,3.30
2022-09-02T22:05:04.031Z,3.35
2022-09-02T22:07:36.149Z,3.30
2022-09-02T22:10:20.947Z,3.55
2022-09-02T22:12:52.621Z,3.95
2022-09-02T22:15:27.990Z,2.17
2022-09-02T22:18:10.850Z,3.20
2022-09-02T22:20:40.661Z,2.72
2022-09-02T22:23:35.037Z,3.15
2022-09-02T22:26:13.456Z,1.85
2022-09-02T22:28:45.531Z,2.65
2022-09-02T22:31:15.736Z,2.35
2022-09-02T22:33:55.535Z,4.60
2022-09-02T22:36:55.281Z,2.60
2022-09-02T22:39:30.803Z,2.40
2022-09-02T22:42:11.925Z,3.40
2022-09-02T22:45:02.421Z,3.17
2022-09-02T22:47:48.626Z,5.13
2022-09-02T22:50:38.411Z,1.88
2022-09-02T22:53:04.972Z,3.15
2022-09-02T22:56:08.124Z,1.77
2022-09-02T22:59:06.095Z,1.65
2022-09-02T23:01:59.599Z,2.05
2022-09-02T23:04:35.290Z,2.20
2022-09-02T23:07:05.279Z,2.28
2022-09-02T23:09:33.627Z,3.92
2022-09-02T23:12:31.694Z,1.75
2022-09-02T23:15:32.938Z,3.92
2022-09-02T23:18:07.381Z,1.60
2022-09-02T23:20:40.656Z,3.15
2022-09-02T23:25:51.952Z,5.03
2022-09-02T23:28:23.429Z,2.35
2022-09-02T23:30:52.939Z,3.22
2022-09-02T23:33:46.039Z,2.28
2022-09-02T23:36:52.203Z,2.77
2022-09-02T23:39:30.799Z,2.80
2022-09-02T23:42:00.700Z,1.48
2022-09-02T23:44:29.571Z,2.03
2022-09-02T23:47:29.934Z,2.13
2022-09-02T23:50:30.656Z,2.47
2022-09-02T23:53:01.411Z,2.33
2022-09-02T23:55:36.764Z,1.73
2022-09-02T23:58:05.764Z,1.77
